Time;durP1;ratioP1;P1;durP2;ratioP2;P2;SDS_P1;SDS_P2;PMS_P1;PMS_P2;Temp;Humidity;BMP_temperature;BMP_pressure;BME280_temperature;BME280_humidity;BME280_pressure;Samples;Min_cycle;Max_cycle;Signal;HPM_P1;HPM_P2
2022/08/15 00:01:28;;;;;;;11.10;9.95;;;;;;;21.20;69.61;100385.09;5074387;28;20118;-74
2022/08/15 00:03:59;;;;;;;14.20;9.98;;;;;;;21.20;70.22;100376.22;5074218;28;20129;-75
2022/08/15 00:06:38;;;;;;;11.88;10.43;;;;;;;21.16;70.24;100389.38;5074574;28;20144;-74
2022/08/15 00:09:14;;;;;;;11.52;9.85;;;;;;;21.17;69.82;100382.72;5074440;28;20052;-74
2022/08/15 00:11:44;;;;;;;10.98;9.73;;;;;;;21.16;70.42;100373.13;5074103;28;20048;-74
2022/08/15 00:14:23;;;;;;;12.30;10.77;;;;;;;21.15;70.36;100380.53;5074369;28;20084;-74
2022/08/15 00:17:09;;;;;;;11.35;10.32;;;;;;;21.17;69.88;100380.00;5074277;28;20056;-74
2022/08/15 00:19:44;;;;;;;10.63;9.57;;;;;;;21.20;70.21;100376.22;5074372;28;20045;-74
2022/08/15 00:22:11;;;;;;;10.45;9.48;;;;;;;21.20;69.59;100368.84;5073791;28;20048;-74
2022/08/15 00:24:47;;;;;;;11.27;10.27;;;;;;;21.23;69.86;100372.50;5073534;28;20127;-74
2022/08/15 00:27:19;;;;;;;10.73;9.40;;;;;;;21.21;69.25;100367.63;5073038;28;20052;-74
2022/08/15 00:29:52;;;;;;;11.02;9.50;;;;;;;21.22;68.80;100363.66;5072606;28;20111;-74
2022/08/15 00:32:23;;;;;;;11.32;9.35;;;;;;;21.23;69.24;100369.81;5055850;28;20053;-74
2022/08/15 00:35:36;;;;;;;14.32;9.18;;;;;;;21.24;69.67;100357.72;5072519;28;20603;-74
2022/08/15 00:38:13;;;;;;;10.63;9.60;;;;;;;21.25;69.66;100359.19;5073848;28;20041;-75
2022/08/15 00:44:02;;;;;;;10.38;9.25;;;;;;;21.27;70.15;100368.25;5072178;28;20072;-74
2022/08/15 00:46:32;;;;;;;;;;;;;;;21.29;68.64;100359.59;5074265;28;20128;-74
2022/08/15 00:48:59;;;;;;;10.63;9.50;;;;;;;21.26;69.20;100358.66;5073600;28;19928;-75
2022/08/15 00:51:36;;;;;;;10.32;9.52;;;;;;;21.27;69.50;100362.09;5072138;28;20041;-75
2022/08/15 00:54:11;;;;;;;13.15;9.65;;;;;;;21.25;70.21;100354.50;5072632;28;20048;-75
2022/08/15 00:57:24;;;;;;;11.23;10.23;;;;;;;21.25;70.74;100353.78;5073577;28;20134;-75
2022/08/15 01:00:15;;;;;;;11.27;9.88;;;;;;;21.21;72.04;100350.66;5057936;28;20521;-75
2022/08/15 01:03:04;;;;;;;10.77;9.77;;;;;;;21.20;73.61;100346.47;5071756;28;20110;-75
2022/08/15 01:05:31;;;;;;;11.18;9.93;;;;;;;21.18;73.66;100341.59;5054770;28;20142;-75
2022/08/15 01:08:00;;;;;;;11.15;10.15;;;;;;;21.16;73.16;100338.69;5072703;28;20123;-75
2022/08/15 01:10:28;;;;;;;10.90;9.85;;;;;;;21.14;73.31;100340.44;5073229;28;20045;-75
2022/08/15 01:13:05;;;;;;;11.25;10.20;;;;;;;21.14;73.27;100337.75;5073374;28;20049;-75
2022/08/15 01:15:52;;;;;;;10.95;9.30;;;;;;;21.13;73.30;100336.28;5057803;28;20041;-75
2022/08/15 01:18:19;;;;;;;10.98;10.07;;;;;;;21.14;72.90;100340.44;5071772;28;20062;-75
2022/08/15 01:21:10;;;;;;;13.15;10.68;;;;;;;21.15;73.38;100331.09;5071832;28;20052;-75
2022/08/15 01:23:56;;;;;;;11.50;10.52;;;;;;;21.14;73.76;100335.75;5071205;28;20055;-75
2022/08/15 01:26:25;;;;;;;12.65;10.45;;;;;;;21.14;74.66;100330.34;5071483;28;20045;-75
2022/08/15 01:29:13;;;;;;;10.75;9.82;;;;;;;21.12;75.41;100332.84;5057517;28;20068;-75
2022/08/15 01:31:44;;;;;;;14.45;9.85;;;;;;;21.12;75.45;100335.56;5071364;28;20079;-76
2022/08/15 01:34:16;;;;;;;10.15;9.35;;;;;;;21.14;76.17;100337.75;5071436;28;20045;-75
2022/08/15 01:36:46;;;;;;;13.65;10.10;;;;;;;21.14;75.06;100337.75;5072115;28;20041;-75
2022/08/15 01:39:31;;;;;;;10.38;9.40;;;;;;;21.14;75.75;100329.63;5073318;28;20041;-75
2022/08/15 01:42:16;;;;;;;12.38;9.85;;;;;;;21.15;75.60;100325.66;5071361;28;20045;-75
2022/08/15 01:44:50;;;;;;;11.10;9.98;;;;;;;21.13;76.97;100330.88;5071038;28;20049;-75
2022/08/15 01:47:36;;;;;;;13.95;10.27;;;;;;;21.11;77.71;100330.66;5071153;28;20144;-76
2022/08/15 01:50:10;;;;;;;12.05;10.38;;;;;;;21.07;77.56;100327.53;5072668;28;20068;-75
2022/08/15 01:52:45;;;;;;;10.80;9.63;;;;;;;21.06;77.14;100332.22;5070566;28;20056;-75
2022/08/15 01:55:47;;;;;;;11.93;9.93;;;;;;;21.00;77.41;100330.88;5071128;28;20037;-75
2022/08/15 01:58:23;;;;;;;13.10;10.27;;;;;;;20.95;77.69;100329.72;5071061;28;20049;-75
2022/08/15 02:01:01;;;;;;;11.88;9.82;;;;;;;20.95;76.95;100327.03;5070879;28;20057;-75
2022/08/15 02:03:35;;;;;;;14.20;9.80;;;;;;;20.93;77.64;100324.13;5070606;28;20080;-75
2022/08/15 02:06:23;;;;;;;13.38;10.85;;;;;;;20.92;76.52;100323.38;5070676;28;20053;-75
2022/08/15 02:09:07;;;;;;;12.00;10.77;;;;;;;20.91;76.52;100321.94;5070896;28;20053;-76
2022/08/15 02:11:56;;;;;;;13.73;11.00;;;;;;;20.88;76.71;100320.25;5070679;28;20486;-76
2022/08/15 02:14:31;;;;;;;13.52;11.05;;;;;;;20.89;75.99;100323.69;5070771;28;20049;-75
2022/08/15 02:17:11;;;;;;;12.25;10.70;;;;;;;20.88;75.83;100335.75;5072489;28;20071;-75
2022/08/15 02:19:42;;;;;;;13.35;10.60;;;;;;;20.80;75.11;100343.03;5070434;28;20049;-75
2022/08/15 02:22:19;;;;;;;13.02;10.70;;;;;;;20.75;74.83;100335.78;5070729;28;20074;-76
2022/08/15 02:24:52;;;;;;;12.88;11.15;;;;;;;20.75;74.05;100333.81;5070738;28;20498;-75
2022/08/15 02:27:19;;;;;;;11.38;9.98;;;;;;;20.76;74.18;100327.16;5070857;28;20114;-75
2022/08/15 02:29:47;;;;;;;14.05;10.30;;;;;;;20.75;73.75;100322.25;5054258;28;20151;-76
2022/08/15 02:32:20;;;;;;;11.85;9.88;;;;;;;20.74;73.53;100321.53;5070831;28;20128;-75
2022/08/15 02:34:59;;;;;;;11.55;10.52;;;;;;;20.75;73.74;100330.38;5070205;28;20063;-75
2022/08/15 02:37:26;;;;;;;15.40;10.32;;;;;;;20.70;73.64;100318.41;5070621;28;20398;-76
2022/08/15 02:39:54;;;;;;;14.38;9.57;;;;;;;20.69;72.86;100305.41;5070680;28;20045;-75
2022/08/15 02:42:45;;;;;;;14.43;10.20;;;;;;;20.68;72.80;100304.69;5070502;28;20520;-75
2022/08/15 02:45:14;;;;;;;11.35;10.10;;;;;;;20.66;73.50;100314.56;5070314;28;20053;-75
2022/08/15 02:47:43;;;;;;;10.57;9.68;;;;;;;20.63;73.49;100319.75;5073885;28;20048;-75
2022/08/15 02:50:16;;;;;;;10.75;9.82;;;;;;;20.61;73.12;100316.84;5073447;28;20513;-75
2022/08/15 02:52:48;;;;;;;10.98;9.80;;;;;;;20.58;73.30;100317.88;5075300;28;20536;-75
2022/08/15 02:55:20;;;;;;;10.65;9.68;;;;;;;20.53;73.86;100313.28;5074349;28;20057;-75
2022/08/15 02:57:50;;;;;;;10.30;9.50;;;;;;;20.53;73.22;100301.75;5073915;28;20049;-75
2022/08/15 03:00:29;;;;;;;11.95;9.63;;;;;;;20.52;73.01;100309.13;5073805;28;20091;-75
2022/08/15 03:03:08;;;;;;;11.07;9.98;;;;;;;20.50;73.47;100306.22;5073683;28;20091;-75
2022/08/15 03:05:45;;;;;;;13.52;10.10;;;;;;;20.49;73.80;100302.06;5072984;28;20049;-75
2022/08/15 03:08:21;;;;;;;11.05;10.13;;;;;;;20.49;73.69;100299.34;5074129;28;20502;-76
2022/08/15 03:10:47;;;;;;;10.70;9.70;;;;;;;20.47;73.62;100293.72;5075299;28;20052;-76
2022/08/15 03:13:23;;;;;;;15.10;9.77;;;;;;;20.51;73.20;100304.97;5073572;28;20049;-75
2022/08/15 03:15:52;;;;;;;11.27;10.15;;;;;;;20.50;73.71;100310.88;5073695;28;20056;-75
2022/08/15 03:18:31;;;;;;;11.35;10.32;;;;;;;20.46;73.70;100324.72;5073239;28;20080;-74
2022/08/15 03:21:05;;;;;;;10.88;10.00;;;;;;;20.48;72.89;100327.63;5073816;28;20056;-76
2022/08/15 03:23:33;;;;;;;16.25;10.07;;;;;;;20.53;72.75;100321.41;5073463;28;20513;-76
2022/08/15 03:26:09;;;;;;;10.35;9.35;;;;;;;20.55;72.70;100321.63;5073188;28;20045;-76
2022/08/15 03:28:52;;;;;;;11.35;9.93;;;;;;;20.59;72.48;100326.72;5073405;28;20072;-77
2022/08/15 03:31:32;;;;;;;10.63;9.82;;;;;;;20.60;72.63;100320.06;5058534;28;20045;-76
2022/08/15 03:34:14;;;;;;;10.88;9.95;;;;;;;20.61;72.68;100316.84;5058351;28;20053;-76
2022/08/15 03:36:45;;;;;;;11.38;10.18;;;;;;;20.59;73.09;100307.78;5073335;28;20961;-76
2022/08/15 03:39:20;;;;;;;11.38;10.13;;;;;;;20.58;73.18;100296.25;5073669;28;20529;-76
2022/08/15 03:41:49;;;;;;;11.35;10.32;;;;;;;20.59;72.82;100297.69;5073450;28;20533;-76
2022/08/15 03:44:23;;;;;;;11.35;10.27;;;;;;;20.58;73.19;100298.22;5073499;28;20049;-76
2022/08/15 03:46:56;;;;;;;15.18;9.98;;;;;;;20.56;73.58;100298.00;5056669;28;20049;-76
2022/08/15 03:49:25;;;;;;;10.45;9.55;;;;;;;20.55;73.86;100289.16;5056152;28;20049;-76
2022/08/15 03:52:11;;;;;;;10.57;9.52;;;;;;;20.52;73.61;100287.50;5059335;28;20068;-76
2022/08/15 03:54:40;;;;;;;11.27;10.20;;;;;;;20.51;73.57;100288.00;5056889;28;20049;-76
2022/08/15 03:57:14;;;;;;;12.07;10.93;;;;;;;20.50;73.40;100289.25;5074789;28;20515;-76
2022/08/15 03:59:43;;;;;;;12.57;10.70;;;;;;;20.48;73.69;100302.56;5056673;28;20124;-76
2022/08/15 04:02:11;;;;;;;11.77;10.70;;;;;;;20.46;73.55;100310.47;5072606;28;20127;-76
2022/08/15 04:04:58;;;;;;;11.27;10.38;;;;;;;20.49;72.74;100309.44;5074050;28;20096;-76
2022/08/15 04:07:28;;;;;;;11.73;10.52;;;;;;;20.50;73.47;100305.47;5072967;28;20087;-76
2022/08/15 04:10:15;;;;;;;11.10;10.10;;;;;;;20.50;73.39;100306.22;5073157;28;20064;-76
2022/08/15 04:13:06;;;;;;;12.40;10.57;;;;;;;20.50;73.02;100308.19;5072911;28;20520;-76
2022/08/15 04:15:34;;;;;;;;;;;;;;;20.52;72.45;100319.22;5073292;28;20115;-76
2022/08/15 04:18:03;;;;;;;10.57;9.68;;;;;;;20.49;73.89;100306.72;5072364;28;20011;-76
2022/08/15 04:20:52;;;;;;;10.20;9.40;;;;;;;20.48;73.69;100291.75;5072976;28;20573;-76
2022/08/15 04:23:20;;;;;;;11.27;10.18;;;;;;;20.45;73.99;100276.56;5073136;28;20148;-76
2022/08/15 04:25:51;;;;;;;11.13;10.23;;;;;;;20.43;74.31;100279.06;5072633;28;20049;-76
2022/08/15 04:28:22;;;;;;;11.25;10.15;;;;;;;20.40;73.94;100272.00;5072990;28;20041;-76
2022/08/15 04:30:57;;;;;;;12.05;9.52;;;;;;;20.39;74.27;100286.78;5072204;28;20045;-76
2022/08/15 04:33:29;;;;;;;11.00;9.98;;;;;;;20.39;73.95;100284.06;5072045;28;20045;-77
2022/08/15 04:36:19;;;;;;;12.65;10.57;;;;;;;20.37;74.56;100276.44;5072333;28;20477;-76
2022/08/15 04:38:55;;;;;;;10.52;9.60;;;;;;;20.38;73.73;100282.63;5073349;28;20052;-77
2022/08/15 04:41:22;;;;;;;11.02;10.00;;;;;;;20.40;73.98;100282.81;5072005;28;20049;-76
2022/08/15 04:44:04;;;;;;;11.02;10.18;;;;;;;20.39;74.15;100278.66;5071620;28;20053;-77
2022/08/15 04:46:31;;;;;;;9.98;9.07;;;;;;;20.40;74.01;100280.09;5071081;28;20583;-77
2022/08/15 04:48:59;;;;;;;10.43;9.52;;;;;;;20.43;73.37;100290.59;5073299;28;20068;-80
2022/08/15 04:51:27;;;;;;;10.52;9.48;;;;;;;20.46;73.62;100294.25;5055312;28;20045;-77
2022/08/15 04:54:04;;;;;;;11.05;9.88;;;;;;;20.45;73.83;100300.91;5071794;28;20486;-76
2022/08/15 04:56:31;;;;;;;10.73;9.75;;;;;;;20.44;74.37;100300.16;5072039;28;20060;-76
2022/08/15 04:59:19;;;;;;;10.63;9.73;;;;;;;20.44;73.43;100297.47;5072151;28;20045;-76
2022/08/15 05:02:06;;;;;;;10.30;9.07;;;;;;;20.49;73.00;100302.06;5057302;28;20045;-76
2022/08/15 05:04:53;;;;;;;10.27;9.07;;;;;;;20.51;72.92;100296.84;5071443;28;20962;-76
2022/08/15 05:07:21;;;;;;;10.07;9.18;;;;;;;20.53;72.87;100294.38;5071828;28;20045;-75
2022/08/15 05:09:55;;;;;;;10.15;9.30;;;;;;;20.55;72.69;100299.97;5071239;28;20557;-75
2022/08/15 05:12:35;;;;;;;10.18;9.23;;;;;;;20.56;72.38;100301.44;5056411;28;20081;-75
2022/08/15 05:15:02;;;;;;;10.90;9.90;;;;;;;20.60;72.00;100304.56;5071406;28;20608;-76
2022/08/15 05:17:32;;;;;;;12.32;9.70;;;;;;;20.63;71.86;100303.53;5071896;28;20069;-76
2022/08/15 05:20:21;;;;;;;10.27;9.48;;;;;;;20.70;71.46;100313.00;5071914;28;20048;-77
2022/08/15 05:22:55;;;;;;;13.60;9.75;;;;;;;20.73;71.66;100311.97;5072734;28;20048;-76
2022/08/15 05:25:28;;;;;;;14.93;10.18;;;;;;;20.76;71.19;100308.22;5071701;28;20081;-76
2022/08/15 05:27:55;;;;;;;11.40;10.30;;;;;;;21.09;70.75;100320.38;5071743;28;20103;-76
2022/08/15 05:30:23;;;;;;;11.55;10.65;;;;;;;21.11;70.80;100315.16;5071064;28;20056;-76
2022/08/15 05:33:12;;;;;;;13.00;11.60;;;;;;;21.04;71.28;100312.34;5071548;28;20619;-76
2022/08/15 05:35:42;;;;;;;12.93;11.68;;;;;;;21.10;71.71;100307.56;5054785;28;20451;-75
2022/08/15 05:38:24;;;;;;;17.45;12.40;;;;;;;21.04;71.92;100299.56;5071821;28;20498;-74
2022/08/15 05:40:57;;;;;;;13.57;11.85;;;;;;;20.97;72.17;100303.63;5073129;28;20068;-74
2022/08/15 05:44:02;;;;;;;13.73;11.57;;;;;;;21.22;71.82;100311.50;5070880;28;20485;-74
2022/08/15 05:47:02;;;;;;;12.82;11.73;;;;;;;21.34;71.34;100309.31;5016391;28;20046;-74
2022/08/15 05:49:40;;;;;;;13.35;12.15;;;;;;;21.40;70.93;100312.63;5013606;28;20050;-75
2022/08/15 05:52:25;;;;;;;13.85;11.70;;;;;;;21.40;70.82;100324.19;5013817;28;20081;-74
2022/08/15 05:55:08;;;;;;;12.43;11.23;;;;;;;21.42;71.23;100323.66;5013553;28;20157;-75
2022/08/15 05:58:32;;;;;;;13.27;11.52;;;;;;;21.59;70.67;100335.56;5013240;28;20395;-75
2022/08/15 06:01:18;;;;;;;12.43;10.60;;;;;;;21.94;69.02;100350.56;4916460;29;20059;-75
2022/08/15 06:03:54;;;;;;;15.27;11.63;;;;;;;22.42;67.15;100347.72;4916704;29;20060;-75
2022/08/15 06:06:26;;;;;;;11.15;10.23;;;;;;;24.02;61.63;100353.88;4932536;29;20123;-74
2022/08/15 06:09:34;;;;;;;10.43;9.43;;;;;;;25.15;59.00;100357.78;4916509;29;20052;-75
2022/08/15 06:12:25;;;;;;;13.80;9.35;;;;;;;25.50;56.47;100358.69;4915948;29;20056;-74
2022/08/15 06:15:05;;;;;;;10.20;9.15;;;;;;;25.47;55.31;100355.09;4915998;29;20100;-74
2022/08/15 06:17:42;;;;;;;10.43;9.38;;;;;;;25.19;55.83;100353.38;4916453;29;20052;-73
2022/08/15 06:20:13;;;;;;;12.07;9.25;;;;;;;25.24;56.39;100359.91;4952412;28;20050;-74
2022/08/15 06:23:19;;;;;;;8.77;7.82;;;;;;;25.29;55.90;100361.69;4973956;28;20523;-73
2022/08/15 06:26:17;;;;;;;9.98;8.13;;;;;;;24.99;56.15;100359.81;4973791;28;20050;-72
2022/08/15 06:29:11;;;;;;;9.00;8.05;;;;;;;24.91;56.61;100370.69;4989901;28;20150;-73
2022/08/15 06:32:09;;;;;;;8.10;7.40;;;;;;;24.79;57.61;100372.34;5035181;28;20053;-73
2022/08/15 06:35:04;;;;;;;7.85;7.05;;;;;;;24.97;57.18;100362.34;5055822;28;20571;-75
2022/08/15 06:38:01;;;;;;;8.57;6.85;;;;;;;24.99;56.09;100367.25;5070659;28;20049;-75
2022/08/15 06:40:50;;;;;;;12.40;6.68;;;;;;;24.92;56.39;100374.13;5070811;28;20051;-75
2022/08/15 06:43:20;;;;;;;7.45;6.60;;;;;;;24.89;55.68;100367.78;5054016;28;20053;-74
2022/08/15 06:46:10;;;;;;;9.93;6.20;;;;;;;24.80;56.35;100367.63;5049659;28;20216;-77
2022/08/15 06:48:59;;;;;;;6.43;5.18;;;;;;;24.80;55.25;100370.34;5070406;28;20150;-74
2022/08/15 06:51:38;;;;;;;5.07;4.65;;;;;;;24.75;54.60;100371.28;5070421;28;20048;-74
2022/08/15 06:54:23;;;;;;;6.35;5.30;;;;;;;24.84;54.27;100368.72;5070458;28;20106;-74
2022/08/15 06:57:20;;;;;;;10.95;6.03;;;;;;;24.99;53.75;100365.25;5070126;28;20067;-74
2022/08/15 06:59:52;;;;;;;5.63;4.20;;;;;;;24.84;52.38;100373.44;5070513;28;20497;-75
2022/08/15 07:02:54;;;;;;;8.40;4.50;;;;;;;24.83;52.94;100363.81;5070305;28;20220;-76
2022/08/15 07:05:28;;;;;;;4.13;3.83;;;;;;;24.97;52.96;100365.09;5069824;28;20059;-75
2022/08/15 07:08:26;;;;;;;6.55;3.50;;;;;;;25.05;51.12;100365.06;5070279;28;20083;-75
2022/08/15 07:10:57;;;;;;;6.65;3.72;;;;;;;25.15;50.26;100363.22;5069825;28;20100;-75
2022/08/15 07:13:55;;;;;;;6.97;3.45;;;;;;;25.18;49.77;100356.69;5070391;28;20539;-75
2022/08/15 07:16:42;;;;;;;3.13;2.92;;;;;;;25.25;49.27;100361.34;5070137;28;20076;-73
2022/08/15 07:19:10;;;;;;;4.88;4.25;;;;;;;25.22;48.05;100365.16;5069993;28;20370;-78
2022/08/15 07:21:49;;;;;;;4.15;3.10;;;;;;;25.17;48.89;100360.66;5055387;28;20107;-74
2022/08/15 07:24:29;;;;;;;7.35;3.00;;;;;;;25.26;49.14;100363.50;5069935;28;20041;-75
2022/08/15 07:27:01;;;;;;;7.10;3.13;;;;;;;25.25;48.61;100372.25;5069962;28;20053;-76
2022/08/15 07:29:29;;;;;;;3.72;3.20;;;;;;;25.08;48.55;100366.69;5053452;28;20049;-77
2022/08/15 07:32:02;;;;;;;3.05;2.85;;;;;;;25.04;49.22;100366.34;5069975;28;20118;-76
2022/08/15 07:35:00;;;;;;;3.60;3.30;;;;;;;25.06;49.69;100366.50;5073500;28;20041;-75
2022/08/15 07:37:39;;;;;;;8.55;3.15;;;;;;;24.87;49.37;100366.88;5073149;28;20049;-75
2022/08/15 07:40:34;;;;;;;3.47;3.08;;;;;;;24.84;50.16;100357.81;5072832;28;20049;-75
2022/08/15 07:43:30;;;;;;;5.43;2.97;;;;;;;24.81;49.98;100361.63;5073195;28;20513;-75
2022/08/15 07:46:10;;;;;;;4.90;3.27;;;;;;;24.81;49.98;100358.91;5073120;28;20045;-76
2022/08/15 07:48:59;;;;;;;4.78;3.08;;;;;;;25.03;50.65;100362.88;5073001;28;20272;-74
2022/08/15 07:51:41;;;;;;;6.93;3.40;;;;;;;25.16;50.61;100368.13;5073064;28;20123;-74
2022/08/15 07:54:28;;;;;;;9.13;3.10;;;;;;;25.23;50.11;100364.63;5072549;28;20476;-75
2022/08/15 07:57:25;;;;;;;10.80;4.38;;;;;;;25.44;50.12;100358.19;5073188;28;20049;-75
2022/08/15 08:00:16;;;;;;;13.15;3.50;;;;;;;25.50;48.87;100364.16;5072741;28;20616;-76
2022/08/15 08:03:31;;;;;;;12.70;4.10;;;;;;;25.56;48.90;100356.50;5074304;28;20048;-74
2022/08/15 08:06:40;;;;;;;32.00;4.32;;;;;;;25.53;49.47;100355.59;5071327;28;20045;-77
2022/08/15 08:09:21;;;;;;;;;;;;;;;25.76;50.01;100363.66;5069534;28;20045;-76
2022/08/15 08:12:05;;;;;;;15.32;3.67;;;;;;;25.92;49.31;100365.00;5071675;28;19925;-75
2022/08/15 08:14:50;;;;;;;10.18;3.28;;;;;;;25.98;49.16;100372.97;5052061;28;20426;-75
2022/08/15 08:17:21;;;;;;;3.33;2.83;;;;;;;25.86;48.10;100383.59;5067466;28;20049;-74
2022/08/15 08:20:03;;;;;;;3.38;3.13;;;;;;;25.88;48.53;100388.50;5073788;28;20045;-74
2022/08/15 08:22:50;;;;;;;5.43;3.22;;;;;;;25.81;48.31;100391.97;5072434;28;20174;-74
2022/08/15 08:25:29;;;;;;;5.82;3.97;;;;;;;25.79;48.92;100395.25;5072650;28;20057;-73
2022/08/15 08:28:32;;;;;;;4.68;3.15;;;;;;;25.77;48.93;100397.09;5072488;28;20121;-74
2022/08/15 08:31:21;;;;;;;7.78;3.20;;;;;;;25.68;49.39;100392.94;5072401;28;20072;-74
2022/08/15 08:34:19;;;;;;;3.40;3.20;;;;;;;25.62;49.53;100386.25;5073942;28;20045;-74
2022/08/15 08:37:14;;;;;;;3.70;3.38;;;;;;;25.62;49.40;100384.22;5073366;28;20049;-74
2022/08/15 08:39:54;;;;;;;6.72;3.67;;;;;;;25.64;49.70;100383.72;5071562;28;20052;-76
2022/08/15 08:42:48;;;;;;;7.30;3.60;;;;;;;25.58;49.52;100384.63;5068299;28;20048;-75
2022/08/15 08:45:41;;;;;;;5.20;3.58;;;;;;;25.58;50.26;100389.38;5071168;28;20140;-76
2022/08/15 08:48:34;;;;;;;9.80;3.85;;;;;;;25.64;49.72;100389.16;5073380;28;20049;-75
2022/08/15 08:51:21;;;;;;;6.03;3.42;;;;;;;25.77;50.15;100389.63;5071712;28;20091;-74
2022/08/15 08:54:14;;;;;;;7.82;3.50;;;;;;;25.85;49.89;100389.59;5071628;28;20057;-74
2022/08/15 08:57:00;;;;;;;4.32;3.03;;;;;;;25.85;49.54;100387.59;5073116;28;20060;-74
2022/08/15 08:59:39;;;;;;;9.07;4.65;;;;;;;25.94;49.24;100389.00;5072540;28;20584;-74
2022/08/15 09:02:17;;;;;;;8.93;3.33;;;;;;;26.04;48.37;100397.28;5073043;28;20048;-74
2022/08/15 09:05:09;;;;;;;7.38;4.20;;;;;;;26.34;48.71;100393.66;5073046;28;20088;-74
2022/08/15 09:07:43;;;;;;;6.65;3.60;;;;;;;26.50;47.18;100403.13;5072896;28;20095;-74
2022/08/15 09:10:22;;;;;;;4.80;3.40;;;;;;;26.72;49.00;100399.50;5073307;28;20044;-74
2022/08/15 09:15:42;;;;;;;4.72;3.33;;;;;;;26.52;49.76;100401.28;5073216;28;20114;-73
2022/08/15 09:18:19;;;;;;;3.67;3.47;;;;;;;26.56;49.25;100406.38;5072698;28;20048;-74
2022/08/15 09:20:46;;;;;;;5.00;3.50;;;;;;;26.64;49.69;100409.75;5073112;28;20045;-74
2022/08/15 09:23:20;;;;;;;13.18;4.10;;;;;;;26.73;50.46;100409.13;5073664;28;20116;-74
2022/08/15 09:26:24;;;;;;;6.47;4.00;;;;;;;26.90;49.20;100411.84;5071329;28;20044;-74
2022/08/15 09:29:03;;;;;;;4.18;3.88;;;;;;;27.01;49.42;100410.69;5072904;28;20135;-74
2022/08/15 09:31:57;;;;;;;7.40;3.90;;;;;;;27.23;49.17;100414.44;5073017;28;20041;-73
2022/08/15 09:34:26;;;;;;;5.28;3.97;;;;;;;27.54;48.78;100421.00;5073149;28;20052;-72
2022/08/15 09:37:24;;;;;;;8.45;4.75;;;;;;;27.97;47.82;100416.06;5072674;28;20044;-73
2022/08/15 09:40:21;;;;;;;4.97;3.95;;;;;;;28.52;46.80;100420.13;5072983;28;20045;-73
2022/08/15 09:43:43;;;;;;;5.60;4.60;;;;;;;28.44;46.46;100419.53;5072529;28;20077;-73
2022/08/15 09:46:36;;;;;;;4.97;4.50;;;;;;;28.43;46.31;100424.28;5072897;28;20076;-73
2022/08/15 09:49:44;;;;;;;5.55;3.60;;;;;;;28.30;44.38;100421.97;5071447;28;20091;-72
2022/08/15 09:52:26;;;;;;;3.90;3.70;;;;;;;28.43;44.20;100418.09;5071625;28;20052;-74
2022/08/15 09:55:27;;;;;;;7.90;4.15;;;;;;;28.84;44.10;100416.31;5071693;28;20056;-72
2022/08/15 09:58:12;;;;;;;6.47;4.07;;;;;;;29.07;43.46;100415.91;5049230;28;20530;-73
2022/08/15 10:01:05;;;;;;;5.28;3.70;;;;;;;28.97;43.38;100423.38;5050131;28;20050;-72
2022/08/15 10:03:44;;;;;;;5.30;4.35;;;;;;;28.66;43.65;100421.19;5049605;28;20506;-73
2022/08/15 10:06:24;;;;;;;5.53;3.90;;;;;;;28.21;43.72;100419.91;5033366;28;20049;-72
2022/08/15 10:09:08;;;;;;;8.10;3.70;;;;;;;27.89;44.99;100429.13;5034570;28;20060;-73
2022/08/15 10:11:40;;;;;;;4.45;3.70;;;;;;;27.64;46.14;100434.00;5049542;28;20112;-73
2022/08/15 10:14:39;;;;;;;8.38;4.18;;;;;;;27.50;45.48;100437.06;5049492;28;20053;-73
2022/08/15 10:17:21;;;;;;;8.35;4.80;;;;;;;27.44;46.24;100433.16;5050005;28;20053;-73
2022/08/15 10:19:55;;;;;;;9.32;6.38;;;;;;;27.38;45.68;100429.94;5032329;28;20510;-82
2022/08/15 10:23:01;;;;;;;5.35;4.35;;;;;;;27.26;46.90;100428.97;5049215;28;20557;-73
2022/08/15 10:25:37;;;;;;;5.57;4.75;;;;;;;27.28;47.45;100434.59;5049664;28;20042;-74
2022/08/15 10:28:11;;;;;;;6.05;5.47;;;;;;;27.13;48.03;100422.56;5049411;28;20071;-73
2022/08/15 10:30:57;;;;;;;9.23;5.20;;;;;;;27.09;48.54;100429.72;5032554;28;20073;-73
2022/08/15 10:33:30;;;;;;;5.93;4.90;;;;;;;27.06;48.83;100423.38;5049091;28;20073;-73
2022/08/15 10:36:14;;;;;;;7.50;4.80;;;;;;;26.92;48.71;100425.66;5070782;28;20068;-73
2022/08/15 10:39:07;;;;;;;6.65;5.07;;;;;;;26.79;49.34;100425.97;5072130;28;20053;-73
2022/08/15 10:41:51;;;;;;;9.85;5.38;;;;;;;26.52;49.55;100433.31;5070814;28;20498;-74
2022/08/15 10:44:27;;;;;;;7.30;5.13;;;;;;;26.41;49.47;100433.78;5072308;28;20095;-74
2022/08/15 10:47:26;;;;;;;10.82;5.80;;;;;;;26.37;50.17;100444.38;5070457;28;20049;-73
2022/08/15 10:50:14;;;;;;;7.85;5.55;;;;;;;26.32;50.05;100446.03;5069860;28;20095;-73
2022/08/15 10:53:15;;;;;;;12.93;6.40;;;;;;;26.31;50.61;100446.59;5072304;28;20051;-74
2022/08/15 10:55:41;;;;;;;11.98;5.90;;;;;;;26.28;51.58;100442.22;5071972;28;20048;-73
2022/08/15 10:58:32;;;;;;;8.20;6.68;;;;;;;26.20;52.69;100453.19;5070260;28;20057;-73
2022/08/15 11:01:07;;;;;;;9.55;6.90;;;;;;;26.16;53.15;100453.56;5070110;28;20510;-73
2022/08/15 11:03:58;;;;;;;9.65;7.00;;;;;;;26.10;52.78;100455.06;5069354;28;20057;-73
2022/08/15 11:06:49;;;;;;;13.63;7.72;;;;;;;25.91;54.82;100453.53;5071745;28;20195;-73
2022/08/15 11:09:23;;;;;;;11.93;7.80;;;;;;;25.87;55.29;100452.47;5075317;28;20045;-73
2022/08/15 11:12:03;;;;;;;11.02;7.68;;;;;;;25.74;56.64;100450.72;5075257;28;20502;-74
2022/08/15 11:14:43;;;;;;;11.88;8.57;;;;;;;25.52;59.11;100460.44;5074702;28;20056;-75
2022/08/15 11:17:17;;;;;;;16.88;8.65;;;;;;;25.39;59.63;100455.19;5072142;28;20519;-74
2022/08/15 11:19:49;;;;;;;10.48;7.80;;;;;;;25.32;59.32;100458.66;5074889;28;20132;-74
2022/08/15 11:22:46;;;;;;;9.57;7.97;;;;;;;25.35;60.42;100460.28;5075195;28;20060;-74
2022/08/15 11:25:19;;;;;;;11.93;8.35;;;;;;;25.24;60.40;100464.13;5074565;28;20131;-74
2022/08/15 11:28:12;;;;;;;8.90;7.43;;;;;;;25.18;59.45;100474.50;5075008;28;20052;-74
2022/08/15 11:31:06;;;;;;;12.85;8.02;;;;;;;25.14;60.04;100473.44;5074603;28;20497;-74
2022/08/15 11:33:41;;;;;;;10.65;7.22;;;;;;;25.07;60.48;100476.88;5074748;28;20052;-74
2022/08/15 11:36:23;;;;;;;8.95;7.40;;;;;;;25.06;59.41;100465.28;5073885;28;20049;-76
2022/08/15 11:39:16;;;;;;;12.02;7.47;;;;;;;25.09;59.24;100477.06;5073279;28;20508;-76
2022/08/15 11:41:54;;;;;;;9.65;7.20;;;;;;;25.06;59.31;100475.44;5074970;28;20069;-76
2022/08/15 11:44:25;;;;;;;12.38;7.18;;;;;;;25.14;58.65;100479.59;5073731;28;20049;-76
2022/08/15 11:46:53;;;;;;;12.40;7.05;;;;;;;25.16;59.24;100482.50;5072721;28;20041;-76
2022/08/15 11:49:31;;;;;;;9.82;7.03;;;;;;;25.30;57.93;100482.28;5073462;28;20413;-77
2022/08/15 11:52:05;;;;;;;11.52;7.32;;;;;;;25.36;57.63;100483.53;5074536;28;20539;-74
2022/08/15 11:55:13;;;;;;;9.10;7.03;;;;;;;25.42;56.83;100486.78;5074812;28;20123;-74
2022/08/15 11:57:52;;;;;;;11.35;7.32;;;;;;;25.40;57.55;100489.34;5073077;28;20078;-75
2022/08/15 12:00:27;;;;;;;9.45;7.35;;;;;;;25.44;57.13;100486.97;5072652;28;20068;-74
2022/08/15 12:02:55;;;;;;;10.93;7.05;;;;;;;25.52;57.23;100482.22;5073919;28;20045;-74
2022/08/15 12:05:39;;;;;;;8.77;6.85;;;;;;;25.62;56.72;100484.34;5072145;28;20057;-75
2022/08/15 12:08:29;;;;;;;8.70;7.38;;;;;;;25.57;56.60;100480.56;5073045;28;20068;-74
2022/08/15 12:11:14;;;;;;;9.82;8.20;;;;;;;25.53;55.55;100482.94;5074057;28;20049;-73
2022/08/15 12:14:01;;;;;;;10.65;7.05;;;;;;;25.56;56.43;100485.31;5074073;28;20498;-76
2022/08/15 12:16:47;;;;;;;8.15;7.22;;;;;;;25.59;56.41;100488.94;5072068;28;20041;-76
2022/08/15 12:19:37;;;;;;;16.90;7.35;;;;;;;25.79;56.04;100493.41;5072216;28;20049;-74
2022/08/15 12:22:30;;;;;;;8.88;6.25;;;;;;;25.95;56.82;100499.53;5074047;28;20049;-75
2022/08/15 12:25:18;;;;;;;14.85;7.47;;;;;;;25.95;56.21;100496.78;5074296;28;20525;-75
2022/08/15 12:28:05;;;;;;;9.23;8.15;;;;;;;25.87;55.27;100499.56;5058137;28;20843;-75
2022/08/15 12:30:56;;;;;;;9.85;7.28;;;;;;;25.80;55.58;100508.47;5073316;28;20041;-75